createdAt,value
2017-04-17T00:00:11.911Z,20.85
2017-04-17T00:00:40.142Z,20.83
2017-04-17T00:01:08.368Z,20.82
2017-04-17T00:01:36.581Z,20.76
2017-04-17T00:02:04.912Z,20.78
2017-04-17T00:02:33.215Z,20.81
2017-04-17T00:03:01.547Z,20.75
2017-04-17T00:03:29.882Z,20.78
2017-04-17T00:03:58.170Z,20.72
2017-04-17T00:04:26.486Z,20.76
2017-04-17T00:04:54.700Z,20.74
2017-04-17T00:05:22.971Z,20.72
2017-04-17T00:05:51.291Z,20.72
2017-04-17T00:06:19.630Z,20.75
2017-04-17T00:06:47.996Z,20.79
2017-04-17T00:07:16.715Z,20.71
2017-04-17T00:07:45.073Z,20.71
2017-04-17T00:08:13.326Z,20.72
2017-04-17T00:08:41.623Z,20.71
2017-04-17T00:09:09.758Z,20.71
2017-04-17T00:09:38.170Z,20.68
2017-04-17T00:10:06.506Z,20.68
2017-04-17T00:10:34.962Z,20.64
2017-04-17T00:11:03.314Z,20.63
2017-04-17T00:11:31.583Z,20.71
2017-04-17T00:11:59.874Z,20.66
2017-04-17T00:12:29.117Z,20.66
2017-04-17T00:12:57.565Z,20.64
2017-04-17T00:13:25.977Z,20.67
2017-04-17T00:13:54.742Z,20.74
2017-04-17T00:14:23.315Z,20.79
2017-04-17T00:14:51.587Z,20.72
2017-04-17T00:15:20.065Z,20.83
2017-04-17T00:15:48.364Z,20.82
2017-04-17T00:16:16.672Z,20.81
2017-04-17T00:16:45.041Z,20.81
2017-04-17T00:17:13.434Z,20.86
2017-04-17T00:17:41.741Z,20.88
2017-04-17T00:18:10.281Z,20.88
2017-04-17T00:18:38.798Z,20.93
2017-04-17T00:19:07.248Z,20.93
2017-04-17T00:19:35.796Z,21.01
2017-04-17T00:20:04.264Z,20.93
2017-04-17T00:20:32.738Z,21.01
2017-04-17T00:21:00.953Z,21.01
2017-04-17T00:21:29.030Z,20.98
2017-04-17T00:21:57.215Z,21
2017-04-17T00:22:25.611Z,21.01
2017-04-17T00:22:53.967Z,20.97
2017-04-17T00:23:22.252Z,21.03
2017-04-17T00:23:50.951Z,20.98
2017-04-17T00:24:19.317Z,21.08
2017-04-17T00:24:47.653Z,21.11
2017-04-17T00:25:15.767Z,21.12
2017-04-17T00:25:44.120Z,21.12
2017-04-17T00:26:12.510Z,21.09
2017-04-17T00:26:40.709Z,21.19
2017-04-17T00:27:09.136Z,21.18
2017-04-17T00:27:37.579Z,21.12
2017-04-17T00:28:05.833Z,21.09
2017-04-17T00:28:34.253Z,21.21
2017-04-17T00:29:03.249Z,21.15
2017-04-17T00:29:31.904Z,21.13
2017-04-17T00:30:00.233Z,21.09
2017-04-17T00:30:28.687Z,21.09
2017-04-17T00:30:56.854Z,21.13
2017-04-17T00:31:25.199Z,21.12
2017-04-17T00:31:53.295Z,21.08
2017-04-17T00:32:21.595Z,21.09
2017-04-17T00:32:49.738Z,21.09
2017-04-17T00:33:18.053Z,21.11
2017-04-17T00:33:46.157Z,21.06
2017-04-17T00:34:14.435Z,21.12
2017-04-17T00:34:42.622Z,21.11
2017-04-17T00:35:11.006Z,21.04
2017-04-17T00:35:39.495Z,21.12
2017-04-17T00:36:08.129Z,21.15
2017-04-17T00:36:36.551Z,21.12
2017-04-17T00:37:04.998Z,21.13
2017-04-17T00:37:33.212Z,21.12
2017-04-17T00:38:01.499Z,21.12
2017-04-17T00:38:29.892Z,21.06
2017-04-17T00:38:58.341Z,21.11
2017-04-17T00:39:26.509Z,21.15
2017-04-17T00:39:54.973Z,21.18
2017-04-17T00:40:23.066Z,21.16
2017-04-17T00:40:51.385Z,21.15
2017-04-17T00:41:19.864Z,21.08
2017-04-17T00:41:48.320Z,21.16
2017-04-17T00:42:16.706Z,21.09
2017-04-17T00:42:44.904Z,21.13
2017-04-17T00:43:13.237Z,21.04
2017-04-17T00:43:41.461Z,21.12
2017-04-17T00:44:09.766Z,20.97
2017-04-17T00:44:38.556Z,21.04
2017-04-17T00:45:06.885Z,21.12
2017-04-17T00:45:35.308Z,21.12
2017-04-17T00:46:03.734Z,21.11
2017-04-17T00:46:32.017Z,21.04
2017-04-17T00:47:00.339Z,21
2017-04-17T00:47:28.709Z,21.01
2017-04-17T00:47:57.207Z,20.98
2017-04-17T00:48:25.482Z,21.09
2017-04-17T00:48:53.768Z,20.98
2017-04-17T00:49:22.232Z,21.01
2017-04-17T00:49:50.492Z,20.96
2017-04-17T00:50:18.780Z,21
2017-04-17T00:50:47.032Z,21.04
2017-04-17T00:51:15.587Z,21.03
2017-04-17T00:51:43.960Z,21.03
2017-04-17T00:52:12.350Z,21
2017-04-17T00:52:40.623Z,21.06
2017-04-17T00:53:08.851Z,21.04
2017-04-17T00:53:37.942Z,21.16
2017-04-17T00:54:05.935Z,21.08
2017-04-17T00:54:34.910Z,21.18
2017-04-17T00:55:03.404Z,21.18
2017-04-17T00:55:31.952Z,21.21
2017-04-17T00:56:00.169Z,21.12
2017-04-17T00:56:28.455Z,21.15
2017-04-17T00:56:56.809Z,21.15
2017-04-17T00:57:25.141Z,21.15
2017-04-17T00:57:53.702Z,21.23
2017-04-17T00:58:22.165Z,21.13
2017-04-17T00:58:50.271Z,21.13
2017-04-17T00:59:18.637Z,21.21
2017-04-17T00:59:46.767Z,21.18
2017-04-17T01:00:15.007Z,21.15
2017-04-17T01:00:43.242Z,21.18
2017-04-17T01:01:11.600Z,21.16
2017-04-17T01:01:40.215Z,21.13
2017-04-17T01:02:08.653Z,21.06
2017-04-17T01:02:37.342Z,21.12
2017-04-17T01:03:05.615Z,21.19
2017-04-17T01:03:33.929Z,21.16
2017-04-17T01:04:03.177Z,21.15
2017-04-17T01:04:31.465Z,21.11
2017-04-17T01:04:59.972Z,21.13
2017-04-17T01:05:28.412Z,21.15
2017-04-17T01:05:56.709Z,21.09
2017-04-17T01:06:25.846Z,21
2017-04-17T01:06:54.258Z,21.06
2017-04-17T01:07:22.708Z,21.03
2017-04-17T01:07:50.880Z,21.03
2017-04-17T01:08:19.311Z,21.01
2017-04-17T01:08:47.686Z,20.96
2017-04-17T01:09:16.108Z,21.01
2017-04-17T01:09:44.807Z,20.91
2017-04-17T01:10:12.893Z,20.97
2017-04-17T01:10:41.438Z,20.9
2017-04-17T01:11:09.702Z,20.85
2017-04-17T01:11:38.014Z,20.88
2017-04-17T01:12:06.397Z,20.86
2017-04-17T01:12:34.794Z,20.88
2017-04-17T01:13:03.810Z,20.79
2017-04-17T01:13:32.247Z,20.76
2017-04-17T01:14:00.463Z,20.75
2017-04-17T01:14:29.118Z,20.76
2017-04-17T01:14:58.394Z,20.66
2017-04-17T01:15:27.479Z,20.67
2017-04-17T01:15:56.485Z,20.68
2017-04-17T01:16:25.204Z,20.6
2017-04-17T01:16:53.515Z,20.58
2017-04-17T01:17:21.861Z,20.64
2017-04-17T01:17:50.421Z,20.64
2017-04-17T01:18:18.831Z,20.57
2017-04-17T01:18:47.413Z,20.49
2017-04-17T01:19:15.666Z,20.6
2017-04-17T01:19:44.340Z,20.56
2017-04-17T01:20:12.521Z,20.4
2017-04-17T01:20:41.627Z,20.57
2017-04-17T01:21:10.408Z,20.49
2017-04-17T01:21:38.778Z,20.34
2017-04-17T01:22:07.796Z,20.42
2017-04-17T01:22:36.224Z,20.34
2017-04-17T01:23:04.316Z,20.29
2017-04-17T01:23:32.789Z,20.29
2017-04-17T01:24:01.236Z,20.32
2017-04-17T01:24:29.802Z,20.26
2017-04-17T01:24:58.456Z,20.38
2017-04-17T01:25:27.020Z,20.4
2017-04-17T01:25:55.133Z,20.3
2017-04-17T01:26:23.759Z,20.3
2017-04-17T01:26:52.525Z,20.38
2017-04-17T01:27:20.931Z,20.32
2017-04-17T01:27:49.351Z,20.29
2017-04-17T01:28:17.758Z,20.3
2017-04-17T01:28:46.298Z,20.25
2017-04-17T01:29:15.134Z,20.27
2017-04-17T01:29:43.931Z,20.25
2017-04-17T01:30:12.115Z,20.26
2017-04-17T01:30:40.913Z,20.25
2017-04-17T01:31:09.231Z,20.32
2017-04-17T01:31:37.874Z,20.26
2017-04-17T01:32:06.710Z,20.32
2017-04-17T01:32:35.031Z,20.37
2017-04-17T01:33:03.805Z,20.23
2017-04-17T01:33:32.290Z,20.25
2017-04-17T01:34:00.662Z,20.27
2017-04-17T01:34:28.989Z,20.22
2017-04-17T01:34:57.369Z,20.25
2017-04-17T01:35:26.473Z,20.26
2017-04-17T01:35:55.024Z,20.25
2017-04-17T01:36:23.769Z,20.23
2017-04-17T01:36:52.215Z,20.27
2017-04-17T01:37:20.336Z,20.22
2017-04-17T01:37:48.459Z,20.25
2017-04-17T01:38:16.887Z,20.25
2017-04-17T01:38:45.221Z,20.23
2017-04-17T01:39:13.639Z,20.22
2017-04-17T01:39:41.942Z,20.25
2017-04-17T01:40:10.273Z,20.25
2017-04-17T01:40:38.638Z,20.29
2017-04-17T01:41:06.734Z,20.22
2017-04-17T01:41:35.281Z,20.15
2017-04-17T01:42:03.484Z,20.22
2017-04-17T01:42:31.704Z,20.22
2017-04-17T01:42:59.961Z,20.26
2017-04-17T01:43:28.638Z,20.29
2017-04-17T01:43:56.985Z,20.25
2017-04-17T01:44:25.343Z,20.25
2017-04-17T01:44:53.731Z,20.29
2017-04-17T01:45:22.091Z,20.29
2017-04-17T01:45:50.288Z,20.3
2017-04-17T01:46:18.715Z,20.26
2017-04-17T01:46:46.901Z,20.23
2017-04-17T01:47:15.322Z,20.32
2017-04-17T01:47:43.541Z,20.35
2017-04-17T01:48:11.633Z,20.3
2017-04-17T01:48:40.231Z,20.3
2017-04-17T01:49:08.521Z,20.35
2017-04-17T01:49:36.802Z,20.35
2017-04-17T01:50:05.260Z,20.35
2017-04-17T01:50:33.461Z,20.41
2017-04-17T01:51:01.587Z,20.27
2017-04-17T01:51:29.803Z,20.42
2017-04-17T01:51:58.102Z,20.46
2017-04-17T01:52:26.339Z,20.35
2017-04-17T01:52:54.442Z,20.48
2017-04-17T01:53:22.812Z,20.57
2017-04-17T01:53:50.993Z,20.53
2017-04-17T01:54:19.536Z,20.54
2017-04-17T01:54:47.731Z,20.58
2017-04-17T01:55:16.267Z,20.54
2017-04-17T01:55:44.510Z,20.57
2017-04-17T01:56:13.051Z,20.61
2017-04-17T01:56:41.488Z,20.57
2017-04-17T01:57:09.807Z,20.56
2017-04-17T01:57:38.057Z,20.74
2017-04-17T01:58:06.485Z,20.64
2017-04-17T01:58:34.841Z,20.66
2017-04-17T01:59:03.051Z,20.67
2017-04-17T01:59:31.251Z,20.68
2017-04-17T01:59:59.511Z,20.79
2017-04-17T02:00:27.730Z,20.71
2017-04-17T02:00:55.962Z,20.74
2017-04-17T02:01:24.331Z,20.79
2017-04-17T02:01:52.635Z,20.74
2017-04-17T02:02:22.144Z,20.71
2017-04-17T02:02:50.377Z,20.79
2017-04-17T02:03:18.586Z,20.79
2017-04-17T02:03:46.885Z,20.75
2017-04-17T02:04:15.295Z,20.71
2017-04-17T02:04:43.544Z,20.72
2017-04-17T02:05:11.725Z,20.71
2017-04-17T02:05:40.303Z,20.71
2017-04-17T02:06:08.528Z,20.71
2017-04-17T02:06:36.741Z,20.72
2017-04-17T02:07:05.180Z,20.71
2017-04-17T02:07:34.002Z,20.79
2017-04-17T02:08:02.379Z,20.78
2017-04-17T02:08:30.813Z,20.74
2017-04-17T02:08:59.131Z,20.79
2017-04-17T02:09:27.418Z,20.72
2017-04-17T02:09:56.110Z,20.79
2017-04-17T02:10:24.490Z,20.75
2017-04-17T02:10:53.085Z,20.74
2017-04-17T02:11:21.627Z,20.74
2017-04-17T02:11:49.932Z,20.72
2017-04-17T02:12:18.225Z,20.78
2017-04-17T02:12:46.323Z,20.71
2017-04-17T02:13:14.439Z,20.71
2017-04-17T02:13:43.070Z,20.64
2017-04-17T02:14:11.393Z,20.58
2017-04-17T02:14:39.731Z,20.58
2017-04-17T02:15:08.043Z,20.56
2017-04-17T02:15:36.537Z,20.48
2017-04-17T02:16:05.638Z,20.48
2017-04-17T02:16:34.015Z,20.35
2017-04-17T02:17:02.156Z,20.48
2017-04-17T02:17:30.643Z,20.3
2017-04-17T02:17:58.936Z,20.3
2017-04-17T02:18:27.337Z,20.34
2017-04-17T02:18:55.723Z,20.34
2017-04-17T02:19:24.272Z,20.38
2017-04-17T02:19:52.616Z,20.27
2017-04-17T02:20:21.057Z,20.29
2017-04-17T02:20:49.451Z,20.29
2017-04-17T02:21:17.958Z,20.25
2017-04-17T02:21:46.574Z,20.26
2017-04-17T02:22:14.998Z,20.26
2017-04-17T02:22:43.297Z,20.23
2017-04-17T02:23:11.627Z,20.25
2017-04-17T02:23:39.685Z,20.26
2017-04-17T02:24:07.978Z,20.27
2017-04-17T02:24:36.266Z,20.25
2017-04-17T02:25:04.709Z,20.26
2017-04-17T02:25:32.973Z,20.15
2017-04-17T02:26:01.210Z,20.22
2017-04-17T02:26:29.498Z,20.22
2017-04-17T02:26:57.821Z,20.16
2017-04-17T02:27:26.188Z,20.11
2017-04-17T02:27:54.459Z,20.19
2017-04-17T02:28:22.612Z,20.12
2017-04-17T02:28:51.065Z,20.15
2017-04-17T02:29:19.307Z,20.16
2017-04-17T02:29:47.630Z,20.15
2017-04-17T02:30:16.043Z,20.2
2017-04-17T02:30:44.524Z,20.15
2017-04-17T02:31:12.917Z,20.16
2017-04-17T02:31:41.117Z,20.19
2017-04-17T02:32:09.420Z,20.2
2017-04-17T02:32:37.640Z,20.19
2017-04-17T02:33:06.049Z,20.18
2017-04-17T02:33:34.398Z,20.16
2017-04-17T02:34:02.818Z,20.18
2017-04-17T02:34:31.217Z,20.27
2017-04-17T02:34:59.452Z,20.23
2017-04-17T02:35:27.664Z,20.27
2017-04-17T02:35:55.945Z,20.29
2017-04-17T02:36:24.354Z,20.34
2017-04-17T02:36:52.635Z,20.32
2017-04-17T02:37:20.788Z,20.44
2017-04-17T02:37:48.956Z,20.3
2017-04-17T02:38:17.213Z,20.35
2017-04-17T02:38:45.517Z,20.34
2017-04-17T02:39:13.767Z,20.51
2017-04-17T02:39:41.871Z,20.46
2017-04-17T02:40:10.044Z,20.51
2017-04-17T02:40:38.242Z,20.44
2017-04-17T02:41:06.679Z,20.51
2017-04-17T02:41:34.861Z,20.48
2017-04-17T02:42:03.315Z,20.49
2017-04-17T02:42:31.674Z,20.54
2017-04-17T02:42:59.921Z,20.6
2017-04-17T02:43:28.244Z,20.58
2017-04-17T02:43:56.372Z,20.6
2017-04-17T02:44:24.688Z,20.6
2017-04-17T02:44:52.911Z,20.54
2017-04-17T02:45:21.180Z,20.57
2017-04-17T02:45:49.554Z,20.61
2017-04-17T02:46:17.756Z,20.58
2017-04-17T02:46:46.058Z,20.63
2017-04-17T02:47:14.378Z,20.61
2017-04-17T02:47:42.853Z,20.56
2017-04-17T02:48:11.223Z,20.63
2017-04-17T02:48:39.560Z,20.61
2017-04-17T02:49:07.763Z,20.61
2017-04-17T02:49:35.959Z,20.54
2017-04-17T02:50:04.250Z,20.57
2017-04-17T02:50:32.574Z,20.42
2017-04-17T02:51:01.640Z,20.53
2017-04-17T02:51:30.191Z,20.49
2017-04-17T02:51:58.560Z,20.46
2017-04-17T02:52:26.826Z,20.42
2017-04-17T02:52:55.188Z,20.38
2017-04-17T02:53:23.724Z,20.46
2017-04-17T02:53:52.153Z,20.29
2017-04-17T02:54:20.495Z,20.37
2017-04-17T02:54:48.725Z,20.27
2017-04-17T02:55:16.918Z,20.29
2017-04-17T02:55:45.021Z,20.26
2017-04-17T02:56:13.359Z,20.29
2017-04-17T02:56:41.738Z,20.23
2017-04-17T02:57:09.955Z,20.3
2017-04-17T02:57:38.197Z,20.25
2017-04-17T02:58:06.565Z,20.2
2017-04-17T02:58:35.051Z,20.23
2017-04-17T02:59:03.455Z,20.11
2017-04-17T02:59:31.734Z,20.19
2017-04-17T03:00:00.195Z,20.15
2017-04-17T03:00:28.430Z,20.18
2017-04-17T03:00:56.746Z,20.2
2017-04-17T03:01:24.970Z,20.2
2017-04-17T03:01:53.322Z,20.18
2017-04-17T03:02:21.516Z,20.11
2017-04-17T03:02:49.689Z,20.11
2017-04-17T03:03:18.043Z,20.15
2017-04-17T03:03:46.304Z,20.15
2017-04-17T03:04:14.491Z,20.1
2017-04-17T03:04:42.797Z,20.07
2017-04-17T03:05:11.049Z,20.07
2017-04-17T03:05:39.343Z,20.1
2017-04-17T03:06:07.787Z,19.97
2017-04-17T03:06:35.970Z,20.07
2017-04-17T03:07:04.240Z,20.07
2017-04-17T03:07:32.686Z,20
2017-04-17T03:08:01.052Z,20.04
2017-04-17T03:08:29.322Z,20.07
2017-04-17T03:08:57.678Z,20.1
2017-04-17T03:09:25.894Z,20.12
2017-04-17T03:09:54.295Z,20.16
2017-04-17T03:10:22.683Z,20.08
2017-04-17T03:10:51.067Z,20.12
2017-04-17T03:11:20.362Z,20.08
2017-04-17T03:11:48.446Z,20.1
2017-04-17T03:12:16.660Z,20.12
2017-04-17T03:12:44.936Z,20.12
2017-04-17T03:13:13.269Z,20.11
2017-04-17T03:13:41.541Z,20.1
2017-04-17T03:14:09.720Z,20.1
2017-04-17T03:14:38.254Z,20.07
2017-04-17T03:15:06.560Z,20.1
2017-04-17T03:15:34.774Z,20.11
2017-04-17T03:16:03.058Z,20.12
2017-04-17T03:16:31.221Z,20.12
2017-04-17T03:16:59.607Z,20.08
2017-04-17T03:17:28.012Z,20.1
2017-04-17T03:17:56.372Z,20.1
2017-04-17T03:18:24.643Z,20.19
2017-04-17T03:18:53.035Z,20.05
2017-04-17T03:19:21.301Z,20.11
2017-04-17T03:19:49.619Z,20.04
2017-04-17T03:20:17.943Z,20.19
2017-04-17T03:20:46.218Z,20.1
2017-04-17T03:21:14.445Z,20.15
2017-04-17T03:21:42.774Z,20.07
2017-04-17T03:22:11.044Z,20.11
2017-04-17T03:22:39.095Z,20.12
2017-04-17T03:23:07.297Z,20.08
2017-04-17T03:23:35.504Z,20.11
2017-04-17T03:24:03.733Z,20.11
2017-04-17T03:24:31.990Z,20.18
2017-04-17T03:25:00.246Z,20.16
2017-04-17T03:25:28.818Z,20.15
2017-04-17T03:25:57.063Z,20.18
2017-04-17T03:26:25.353Z,20.15
2017-04-17T03:26:53.536Z,20.18
2017-04-17T03:27:21.737Z,20.26
2017-04-17T03:27:50.041Z,20.2
2017-04-17T03:28:18.341Z,20.26
2017-04-17T03:28:46.667Z,20.3
2017-04-17T03:29:15.055Z,20.29
2017-04-17T03:29:43.280Z,20.35
2017-04-17T03:30:11.466Z,20.29
2017-04-17T03:30:39.710Z,20.3
2017-04-17T03:31:08.101Z,20.27
2017-04-17T03:31:36.526Z,20.32
2017-04-17T03:32:04.691Z,20.34
2017-04-17T03:32:32.958Z,20.27
2017-04-17T03:33:01.115Z,20.34
2017-04-17T03:33:29.420Z,20.3
2017-04-17T03:33:57.729Z,20.3
2017-04-17T03:34:26.079Z,20.34
2017-04-17T03:34:54.662Z,20.41
2017-04-17T03:35:22.880Z,20.38
2017-04-17T03:35:51.243Z,20.34
2017-04-17T03:36:19.366Z,20.34
2017-04-17T03:36:47.653Z,20.34
2017-04-17T03:37:15.833Z,20.37
2017-04-17T03:37:44.008Z,20.3
2017-04-17T03:38:12.346Z,20.35
2017-04-17T03:38:40.593Z,20.35
2017-04-17T03:39:08.712Z,20.34
2017-04-17T03:39:37.077Z,20.34
2017-04-17T03:40:05.415Z,20.3
2017-04-17T03:40:33.520Z,20.44
2017-04-17T03:41:01.710Z,20.41
2017-04-17T03:41:30.189Z,20.38
2017-04-17T03:41:58.783Z,20.34
2017-04-17T03:42:26.995Z,20.32
2017-04-17T03:42:55.161Z,20.34
2017-04-17T03:43:23.428Z,20.32
2017-04-17T03:43:51.704Z,20.32
2017-04-17T03:44:20.722Z,20.46
2017-04-17T03:44:48.831Z,20.37
2017-04-17T03:45:17.112Z,20.46
2017-04-17T03:45:45.367Z,20.35
2017-04-17T03:46:13.790Z,20.46
2017-04-17T03:46:42.269Z,20.44
2017-04-17T03:47:10.349Z,20.46
2017-04-17T03:47:38.552Z,20.44
2017-04-17T03:48:06.682Z,20.46
2017-04-17T03:48:34.967Z,20.38
2017-04-17T03:49:03.082Z,20.44
2017-04-17T03:49:31.429Z,20.44
2017-04-17T03:49:59.957Z,20.44
2017-04-17T03:50:28.080Z,20.46
2017-04-17T03:50:56.414Z,20.48
2017-04-17T03:51:24.640Z,20.51
2017-04-17T03:51:52.736Z,20.48
2017-04-17T03:52:21.050Z,20.42
2017-04-17T03:52:49.257Z,20.51
2017-04-17T03:53:17.573Z,20.51
2017-04-17T03:53:45.804Z,20.4
2017-04-17T03:54:14.076Z,20.54
2017-04-17T03:54:42.293Z,20.46
2017-04-17T03:55:10.590Z,20.46
2017-04-17T03:55:38.854Z,20.42
2017-04-17T03:56:06.942Z,20.48
2017-04-17T03:56:35.662Z,20.44
2017-04-17T03:57:03.624Z,20.49
2017-04-17T03:57:31.918Z,20.41
2017-04-17T03:58:00.221Z,20.46
2017-04-17T03:58:28.547Z,20.51
2017-04-17T03:58:56.614Z,20.57
2017-04-17T03:59:24.884Z,20.46
2017-04-17T03:59:53.146Z,20.42
2017-04-17T04:00:21.447Z,20.56
2017-04-17T04:00:49.726Z,20.56
2017-04-17T04:01:17.885Z,20.48
2017-04-17T04:01:46.419Z,20.53
2017-04-17T04:02:14.625Z,20.48
2017-04-17T04:02:42.745Z,20.44
2017-04-17T04:03:10.946Z,20.57
2017-04-17T04:03:39.910Z,20.56
2017-04-17T04:04:08.220Z,20.57
2017-04-17T04:04:36.413Z,20.56
2017-04-17T04:05:04.714Z,20.63
2017-04-17T04:05:33.029Z,20.44
2017-04-17T04:06:01.294Z,20.57
2017-04-17T04:06:29.591Z,20.42
2017-04-17T04:06:57.907Z,20.49
2017-04-17T04:07:26.213Z,20.48
2017-04-17T04:07:54.434Z,20.49
2017-04-17T04:08:22.671Z,20.51
2017-04-17T04:08:50.969Z,20.44
2017-04-17T04:09:19.223Z,20.37
2017-04-17T04:09:47.349Z,20.38
2017-04-17T04:10:15.612Z,20.34
2017-04-17T04:10:43.828Z,20.3
2017-04-17T04:11:12.007Z,20.35
2017-04-17T04:11:40.318Z,20.27
2017-04-17T04:12:08.341Z,20.29
2017-04-17T04:12:36.522Z,20.22
2017-04-17T04:13:04.698Z,20.12
2017-04-17T04:13:32.904Z,20.2
2017-04-17T04:14:01.179Z,20.12
2017-04-17T04:14:29.449Z,20.04
2017-04-17T04:14:57.538Z,20.04
2017-04-17T04:15:25.793Z,20.15
2017-04-17T04:15:53.874Z,20.11
2017-04-17T04:16:22.149Z,20.08
2017-04-17T04:16:50.321Z,20.07
2017-04-17T04:17:18.433Z,20.02
2017-04-17T04:17:46.673Z,20.01
2017-04-17T04:18:14.997Z,20.02
2017-04-17T04:18:43.281Z,19.97
2017-04-17T04:19:11.572Z,20.04
2017-04-17T04:19:39.850Z,20
2017-04-17T04:20:08.054Z,20.02
2017-04-17T04:20:36.143Z,19.97
2017-04-17T04:21:04.390Z,19.93
2017-04-17T04:21:32.823Z,19.97
2017-04-17T04:22:00.923Z,19.87
2017-04-17T04:22:29.214Z,19.89
2017-04-17T04:22:57.495Z,19.86
2017-04-17T04:23:25.716Z,19.93
2017-04-17T04:23:53.924Z,19.92
2017-04-17T04:24:22.197Z,19.95
2017-04-17T04:24:50.363Z,19.87
2017-04-17T04:25:18.546Z,19.86
2017-04-17T04:25:46.721Z,19.92
2017-04-17T04:26:14.719Z,19.85
2017-04-17T04:26:43.197Z,19.9
2017-04-17T04:27:11.412Z,19.86
2017-04-17T04:27:39.530Z,19.79
2017-04-17T04:28:07.749Z,19.9
2017-04-17T04:28:35.903Z,19.79
2017-04-17T04:29:04.179Z,19.86
2017-04-17T04:29:32.411Z,19.82
2017-04-17T04:30:00.561Z,19.82
2017-04-17T04:30:28.654Z,19.82
2017-04-17T04:30:56.925Z,19.79
2017-04-17T04:31:24.977Z,19.72
2017-04-17T04:31:53.436Z,19.71
2017-04-17T04:32:21.560Z,19.74
2017-04-17T04:32:49.640Z,19.74
2017-04-17T04:33:17.832Z,19.74
2017-04-17T04:33:46.165Z,19.74
2017-04-17T04:34:14.367Z,19.75
2017-04-17T04:34:42.619Z,19.74
2017-04-17T04:35:10.821Z,19.72
2017-04-17T04:35:38.969Z,19.74
2017-04-17T04:36:07.246Z,19.72
2017-04-17T04:36:35.510Z,19.74
2017-04-17T04:37:03.961Z,19.78
2017-04-17T04:37:32.172Z,19.71
2017-04-17T04:38:00.383Z,19.71
2017-04-17T04:38:28.536Z,19.8
2017-04-17T04:38:56.629Z,19.7
2017-04-17T04:39:24.955Z,19.72
2017-04-17T04:39:54.089Z,19.75
2017-04-17T04:40:22.371Z,19.74
2017-04-17T04:40:50.638Z,19.82
2017-04-17T04:41:18.794Z,19.8
2017-04-17T04:41:47.019Z,19.82
2017-04-17T04:42:15.583Z,19.85
2017-04-17T04:42:43.851Z,19.9
2017-04-17T04:43:12.259Z,19.83
2017-04-17T04:43:40.550Z,19.74
2017-04-17T04:44:08.740Z,19.86
2017-04-17T04:44:36.942Z,19.86
2017-04-17T04:45:05.087Z,19.86
2017-04-17T04:45:33.312Z,19.9
2017-04-17T04:46:01.371Z,19.82
2017-04-17T04:46:29.353Z,19.79
2017-04-17T04:46:57.795Z,19.83
2017-04-17T04:47:25.894Z,19.83
2017-04-17T04:47:54.113Z,19.83
2017-04-17T04:48:22.541Z,19.86
2017-04-17T04:48:50.610Z,19.82
2017-04-17T04:49:19.018Z,19.82
2017-04-17T04:49:47.269Z,19.72
2017-04-17T04:50:15.471Z,19.83
2017-04-17T04:50:43.677Z,19.74
2017-04-17T04:51:11.758Z,19.74
2017-04-17T04:51:39.974Z,19.8
2017-04-17T04:52:08.417Z,19.74
2017-04-17T04:52:36.547Z,19.75
2017-04-17T04:53:04.936Z,19.71
2017-04-17T04:53:33.092Z,19.74
2017-04-17T04:54:01.323Z,19.68
2017-04-17T04:54:29.662Z,19.85
2017-04-17T04:54:57.829Z,19.75
2017-04-17T04:55:26.059Z,19.72
2017-04-17T04:55:54.229Z,19.7
2017-04-17T04:56:22.348Z,19.74
2017-04-17T04:56:50.637Z,19.8
2017-04-17T04:57:19.179Z,19.72
2017-04-17T04:57:47.266Z,19.7
2017-04-17T04:58:15.475Z,19.67
2017-04-17T04:58:43.819Z,19.63
2017-04-17T04:59:12.028Z,19.55
2017-04-17T04:59:40.428Z,19.63
2017-04-17T05:00:08.705Z,19.64
2017-04-17T05:00:36.994Z,19.6
2017-04-17T05:01:05.233Z,19.6
2017-04-17T05:01:33.526Z,19.61
2017-04-17T05:02:01.739Z,19.56
2017-04-17T05:02:29.827Z,19.63
2017-04-17T05:02:57.900Z,19.55
2017-04-17T05:03:26.020Z,19.67
2017-04-17T05:03:54.204Z,19.55
2017-04-17T05:04:22.492Z,19.49
2017-04-17T05:04:50.548Z,19.55
2017-04-17T05:05:18.638Z,19.47
2017-04-17T05:05:46.908Z,19.53
2017-04-17T05:06:15.189Z,19.49
2017-04-17T05:06:43.335Z,19.64
2017-04-17T05:07:11.624Z,19.55
2017-04-17T05:07:39.912Z,19.56
2017-04-17T05:08:08.107Z,19.65
2017-04-17T05:08:36.418Z,19.52
2017-04-17T05:09:04.582Z,19.6
2017-04-17T05:09:32.843Z,19.63
2017-04-17T05:10:01.013Z,19.49
2017-04-17T05:10:29.247Z,19.56
2017-04-17T05:10:57.305Z,19.57
2017-04-17T05:11:25.457Z,19.61
2017-04-17T05:11:53.709Z,19.56
2017-04-17T05:12:21.992Z,19.5
2017-04-17T05:12:50.224Z,19.6
2017-04-17T05:13:18.458Z,19.63
2017-04-17T05:13:46.664Z,19.64
2017-04-17T05:14:14.866Z,19.63
2017-04-17T05:14:43.149Z,19.63
2017-04-17T05:15:11.339Z,19.63
2017-04-17T05:15:39.626Z,19.61
2017-04-17T05:16:07.909Z,19.56
2017-04-17T05:16:36.128Z,19.57
2017-04-17T05:17:04.454Z,19.65
2017-04-17T05:17:32.756Z,19.56
2017-04-17T05:18:00.992Z,19.6
2017-04-17T05:18:29.271Z,19.63
2017-04-17T05:18:57.386Z,19.57
2017-04-17T05:19:25.592Z,19.6
2017-04-17T05:19:53.776Z,19.6
2017-04-17T05:20:21.984Z,19.61
2017-04-17T05:20:50.175Z,19.61
2017-04-17T05:21:18.442Z,19.61
2017-04-17T05:21:46.558Z,19.55
2017-04-17T05:22:14.851Z,19.57
2017-04-17T05:22:43.034Z,19.55
2017-04-17T05:23:11.302Z,19.55
2017-04-17T05:23:39.597Z,19.56
2017-04-17T05:24:07.731Z,19.55
2017-04-17T05:24:36.026Z,19.49
2017-04-17T05:25:04.297Z,19.5
2017-04-17T05:25:32.573Z,19.55
2017-04-17T05:26:00.662Z,19.45
2017-04-17T05:26:28.982Z,19.53
2017-04-17T05:26:57.263Z,19.45
2017-04-17T05:27:25.431Z,19.56
2017-04-17T05:27:53.747Z,19.5
2017-04-17T05:28:21.997Z,19.43
2017-04-17T05:28:50.322Z,19.5
2017-04-17T05:29:18.472Z,19.47
2017-04-17T05:29:46.566Z,19.52
2017-04-17T05:30:14.805Z,19.45
2017-04-17T05:30:43.035Z,19.49
2017-04-17T05:31:11.320Z,19.46
2017-04-17T05:31:39.595Z,19.49
2017-04-17T05:32:07.899Z,19.43
2017-04-17T05:32:36.463Z,19.49
2017-04-17T05:33:04.596Z,19.49
2017-04-17T05:33:32.873Z,19.38
2017-04-17T05:34:01.065Z,19.47
2017-04-17T05:34:29.348Z,19.5
2017-04-17T05:34:57.524Z,19.45
2017-04-17T05:35:25.708Z,19.52
2017-04-17T05:35:53.957Z,19.45
2017-04-17T05:36:22.235Z,19.53
2017-04-17T05:36:50.423Z,19.47
2017-04-17T05:37:18.705Z,19.53
2017-04-17T05:37:47.017Z,19.52
2017-04-17T05:38:15.314Z,19.57
2017-04-17T05:38:43.529Z,19.52
2017-04-17T05:39:11.639Z,19.5
2017-04-17T05:39:39.716Z,19.56
2017-04-17T05:40:07.967Z,19.5
2017-04-17T05:40:36.258Z,19.46
2017-04-17T05:41:04.503Z,19.55
2017-04-17T05:41:32.725Z,19.52
2017-04-17T05:42:00.798Z,19.49
2017-04-17T05:42:28.893Z,19.47
2017-04-17T05:42:57.038Z,19.46
2017-04-17T05:43:25.293Z,19.47
2017-04-17T05:43:53.605Z,19.46
2017-04-17T05:44:21.778Z,19.45
2017-04-17T05:44:50.040Z,19.47
2017-04-17T05:45:18.189Z,19.55
2017-04-17T05:45:46.493Z,19.35
2017-04-17T05:46:14.685Z,19.43
2017-04-17T05:46:42.688Z,19.49
2017-04-17T05:47:10.877Z,19.32
2017-04-17T05:47:39.156Z,19.35
2017-04-17T05:48:07.372Z,19.32
2017-04-17T05:48:35.655Z,19.34
2017-04-17T05:49:03.562Z,19.32
2017-04-17T05:49:31.818Z,19.23
2017-04-17T05:50:00.145Z,19.3
2017-04-17T05:50:28.316Z,19.24
2017-04-17T05:50:56.580Z,19.24
2017-04-17T05:51:24.812Z,19.19
2017-04-17T05:51:52.940Z,19.23
2017-04-17T05:52:21.107Z,19.25
2017-04-17T05:52:49.494Z,19.27
2017-04-17T05:53:17.542Z,19.23
2017-04-17T05:53:45.843Z,19.17
2017-04-17T05:54:14.122Z,19.24
2017-04-17T05:54:42.253Z,19.17
2017-04-17T05:55:10.336Z,19.24
2017-04-17T05:55:38.432Z,19.23
2017-04-17T05:56:06.743Z,19.17
2017-04-17T05:56:34.930Z,19.17
2017-04-17T05:57:03.199Z,19.17
2017-04-17T05:57:31.574Z,19.15
2017-04-17T05:57:59.734Z,19.16
2017-04-17T05:58:27.929Z,19.16
2017-04-17T05:58:56.221Z,19.15
2017-04-17T05:59:24.592Z,19.17
2017-04-17T05:59:52.832Z,19.16
2017-04-17T06:00:21.058Z,19.13
2017-04-17T06:00:49.274Z,19.12
2017-04-17T06:01:17.559Z,19.16
2017-04-17T06:01:45.742Z,19.16
2017-04-17T06:02:14.054Z,19.23
2017-04-17T06:02:42.521Z,19.17
2017-04-17T06:03:10.776Z,19.2
2017-04-17T06:03:39.001Z,19.24
2017-04-17T06:04:07.274Z,19.23
2017-04-17T06:04:35.435Z,19.19
2017-04-17T06:05:03.577Z,19.23
2017-04-17T06:05:31.871Z,19.23
2017-04-17T06:06:00.051Z,19.2